Time;durP1;ratioP1;P1;durP2;ratioP2;P2;SDS_P1;SDS_P2;PMS_P1;PMS_P2;Temp;Humidity;BMP_temperature;BMP_pressure;BME280_temperature;BME280_humidity;BME280_pressure;Samples;Min_cycle;Max_cycle;Signal;HPM_P1;HPM_P2
2023/08/27 00:01:54;;;;;;;14.48;13.07;;;;;;;22.17;72.08;92754.47;5053934;28;20219;-80
2023/08/27 00:04:19;;;;;;;18.60;13.20;;;;;;;22.02;72.74;92765.13;5059277;28;20281;-84
2023/08/27 00:06:44;;;;;;;14.05;12.68;;;;;;;22.17;72.23;92756.34;5064981;28;20222;-84
2023/08/27 00:09:10;;;;;;;13.85;12.73;;;;;;;22.27;72.50;92758.47;5069193;28;20956;-83
2023/08/27 00:11:36;;;;;;;16.48;14.25;;;;;;;22.11;72.65;92755.06;5069798;28;20302;-82
2023/08/27 00:14:02;;;;;;;15.13;13.68;;;;;;;22.06;73.77;92755.31;5069251;28;20180;-82
2023/08/27 00:16:28;;;;;;;13.57;12.48;;;;;;;22.00;73.53;92754.84;5069078;28;20230;-83
2023/08/27 00:18:53;;;;;;;15.05;13.70;;;;;;;21.87;73.04;92752.59;5073145;28;20187;-84
2023/08/27 00:21:19;;;;;;;15.05;13.55;;;;;;;21.96;73.59;92750.56;5071811;28;20227;-84
2023/08/27 00:23:44;;;;;;;14.85;13.40;;;;;;;22.16;73.37;92744.19;5084404;28;20200;-83
2023/08/27 00:26:09;;;;;;;14.90;13.65;;;;;;;22.07;73.17;92733.72;5072751;28;20223;-82
2023/08/27 00:28:35;;;;;;;15.13;13.73;;;;;;;22.10;73.04;92735.66;5073335;28;20250;-83
2023/08/27 00:31:04;;;;;;;14.88;13.48;;;;;;;22.01;73.83;92736.97;5073012;28;20253;-83
2023/08/27 00:33:30;;;;;;;14.65;13.35;;;;;;;21.95;74.39;92733.03;5074377;28;20216;-83
2023/08/27 00:35:55;;;;;;;15.27;13.25;;;;;;;21.97;74.33;92734.25;5082858;28;20210;-83
2023/08/27 00:38:21;;;;;;;15.13;13.73;;;;;;;21.66;74.53;92682.97;5071399;28;20180;-82
2023/08/27 00:40:46;;;;;;;15.23;13.70;;;;;;;21.84;75.17;92727.47;5070618;28;20298;-83
2023/08/27 00:43:12;;;;;;;15.40;14.05;;;;;;;21.84;75.81;92727.47;5070969;28;21110;-84
2023/08/27 00:45:37;;;;;;;15.90;14.60;;;;;;;21.83;75.24;92730.47;5059197;28;20226;-80
2023/08/27 00:48:03;;;;;;;16.25;14.60;;;;;;;21.66;76.32;92709.53;5071060;28;20209;-85
2023/08/27 00:50:30;;;;;;;16.70;15.18;;;;;;;21.75;76.14;92718.13;5070588;28;20224;-83
2023/08/27 00:52:56;;;;;;;15.27;13.90;;;;;;;21.66;76.29;92725.50;5070885;28;20178;-83
2023/08/27 00:55:22;;;;;;;19.52;14.77;;;;;;;21.54;76.57;92712.28;5077005;28;20226;-83
2023/08/27 00:57:49;;;;;;;17.00;15.38;;;;;;;21.63;77.04;92715.53;5065726;28;20211;-83
2023/08/27 01:00:16;;;;;;;16.48;14.82;;;;;;;21.68;76.74;92723.28;5084586;28;20218;-83
2023/08/27 01:02:43;;;;;;;17.00;15.32;;;;;;;21.67;76.72;92719.81;5069103;28;20255;-84
2023/08/27 01:05:09;;;;;;;16.55;15.15;;;;;;;21.59;76.54;92722.66;5070620;28;20239;-83
2023/08/27 01:07:53;;;;;;;15.80;14.48;;;;;;;21.46;77.21;92724.63;5071724;28;20274;-83
2023/08/27 01:10:41;;;;;;;15.73;14.18;;;;;;;21.42;77.61;92723.75;5071354;28;20241;-83
2023/08/27 01:13:14;;;;;;;16.02;14.52;;;;;;;21.29;78.02;92714.31;5072301;28;20206;-78
2023/08/27 01:15:40;;;;;;;16.30;14.88;;;;;;;21.32;78.22;92731.47;5071910;28;20219;-79
2023/08/27 01:18:08;;;;;;;16.20;14.60;;;;;;;21.36;77.77;92724.34;5053474;28;20208;-83
2023/08/27 01:20:34;;;;;;;16.30;14.70;;;;;;;21.33;77.78;92722.38;5052022;28;20230;-83
2023/08/27 01:22:59;;;;;;;16.08;14.60;;;;;;;21.39;76.91;92721.78;5071638;28;20244;-82
2023/08/27 01:25:32;;;;;;;16.30;14.60;;;;;;;21.37;77.00;92721.34;5071785;28;20233;-84
2023/08/27 01:28:05;;;;;;;16.63;15.13;;;;;;;21.34;76.99;92718.63;5058331;28;20211;-83
2023/08/27 01:30:43;;;;;;;16.65;15.15;;;;;;;21.36;77.24;92716.38;5071310;28;20237;-84
2023/08/27 01:33:15;;;;;;;15.10;13.85;;;;;;;21.35;77.31;92720.16;5072097;28;20206;-82
2023/08/27 01:35:41;;;;;;;16.02;14.73;;;;;;;21.28;78.14;92726.06;5054597;28;20240;-79
2023/08/27 01:38:07;;;;;;;16.38;14.95;;;;;;;21.22;77.83;92729.31;5061409;28;20307;-84
2023/08/27 01:40:33;;;;;;;15.30;13.77;;;;;;;21.33;77.41;92733.00;5071439;28;20230;-83
2023/08/27 01:42:58;;;;;;;17.02;14.93;;;;;;;21.33;76.62;92733.00;5070998;28;20213;-79
2023/08/27 01:45:23;;;;;;;14.77;13.50;;;;;;;21.37;76.78;92731.97;5073176;28;20215;-82
2023/08/27 01:47:49;;;;;;;14.88;13.68;;;;;;;21.36;76.89;92737.63;5080134;28;20237;-83
2023/08/27 01:50:14;;;;;;;16.38;14.77;;;;;;;21.24;77.69;92733.19;5069419;28;20236;-83
2023/08/27 01:52:40;;;;;;;16.45;14.82;;;;;;;21.21;77.77;92735.75;5061747;28;20184;-82
2023/08/27 01:55:06;;;;;;;16.08;14.48;;;;;;;21.22;77.40;92737.28;5066147;28;20180;-82
2023/08/27 01:57:31;;;;;;;15.55;14.13;;;;;;;21.34;77.36;92750.50;5070314;28;20203;-83
2023/08/27 01:59:56;;;;;;;15.38;13.60;;;;;;;21.26;77.26;92740.81;5074501;28;20214;-82
2023/08/27 02:02:22;;;;;;;16.58;13.43;;;;;;;21.29;77.33;92748.09;5069878;28;20259;-82
2023/08/27 02:04:48;;;;;;;17.08;15.45;;;;;;;21.22;78.08;92743.38;5069782;28;20187;-83
2023/08/27 02:07:13;;;;;;;15.80;14.40;;;;;;;21.18;77.94;92734.53;5075027;28;20876;-82
2023/08/27 02:09:38;;;;;;;16.35;14.57;;;;;;;21.09;78.38;92725.19;5055343;28;20193;-82
2023/08/27 02:12:04;;;;;;;15.45;14.00;;;;;;;21.03;79.17;92729.19;5059114;28;20229;-83
2023/08/27 02:14:30;;;;;;;16.90;15.30;;;;;;;21.02;80.01;92727.63;5071165;28;20210;-82
2023/08/27 02:16:55;;;;;;;15.38;13.77;;;;;;;20.95;80.02;92714.16;5070849;28;20229;-83
2023/08/27 02:19:21;;;;;;;15.63;14.15;;;;;;;21.02;79.55;92722.31;5069678;28;20188;-83
2023/08/27 02:21:47;;;;;;;15.60;14.10;;;;;;;20.92;79.88;92706.88;5068248;28;20219;-79
2023/08/27 02:24:12;;;;;;;17.30;15.35;;;;;;;20.79;81.68;92729.25;5071019;28;20183;-82
2023/08/27 02:26:37;;;;;;;15.90;14.60;;;;;;;20.87;80.17;92715.06;5070727;28;20225;-82
2023/08/27 02:29:03;;;;;;;14.60;13.25;;;;;;;20.91;79.89;92727.34;5067629;28;20210;-83
2023/08/27 02:31:28;;;;;;;16.77;15.18;;;;;;;20.76;80.67;92720.09;5058747;28;20338;-83
2023/08/27 02:33:54;;;;;;;14.80;13.52;;;;;;;20.69;80.73;92715.38;5069674;28;21827;-83
2023/08/27 02:36:19;;;;;;;16.23;14.48;;;;;;;20.60;82.02;92712.09;5069151;28;20238;-78
2023/08/27 02:38:44;;;;;;;16.50;14.70;;;;;;;20.76;82.43;92724.63;5053925;28;20203;-83
2023/08/27 02:41:10;;;;;;;25.65;16.23;;;;;;;20.78;81.82;92723.16;5057878;28;20251;-81
2023/08/27 02:43:35;;;;;;;17.33;15.63;;;;;;;20.56;82.16;92710.44;5068833;28;20187;-84
2023/08/27 02:46:00;;;;;;;16.73;15.13;;;;;;;20.64;82.32;92712.94;5070379;28;20801;-82
2023/08/27 02:48:26;;;;;;;15.77;14.23;;;;;;;20.53;82.21;92709.22;5081589;28;20234;-82
2023/08/27 02:50:51;;;;;;;15.65;14.20;;;;;;;20.54;82.63;92718.75;5070194;28;20220;-82
2023/08/27 02:53:16;;;;;;;15.30;13.80;;;;;;;20.48;82.75;92724.63;5070259;28;20220;-82
2023/08/27 02:55:42;;;;;;;15.90;14.32;;;;;;;20.46;82.56;92711.69;5069827;28;20224;-82
2023/08/27 02:58:07;;;;;;;15.27;13.98;;;;;;;20.40;83.23;92718.34;5070267;28;20189;-82
2023/08/27 03:00:33;;;;;;;15.82;14.40;;;;;;;20.43;83.94;92720.31;5068522;28;20221;-81
2023/08/27 03:02:58;;;;;;;16.40;14.60;;;;;;;20.44;83.43;92719.22;5068495;28;20227;-83
2023/08/27 03:05:23;;;;;;;16.92;15.02;;;;;;;20.39;84.41;92721.31;5069844;28;20323;-82
2023/08/27 03:07:49;;;;;;;17.10;15.40;;;;;;;20.26;84.99;92719.81;5069964;28;20208;-82
2023/08/27 03:10:15;;;;;;;19.15;15.80;;;;;;;20.32;84.61;92716.59;5068870;28;20228;-82
2023/08/27 03:12:40;;;;;;;16.15;14.50;;;;;;;20.23;84.60;92713.28;5056844;28;20269;-82
2023/08/27 03:15:06;;;;;;;15.82;14.32;;;;;;;20.30;83.77;92720.66;5069948;28;20188;-82
2023/08/27 03:17:32;;;;;;;15.25;13.95;;;;;;;20.32;84.40;92721.13;5055811;28;20212;-82
2023/08/27 03:19:57;;;;;;;15.60;14.00;;;;;;;20.26;84.97;92717.16;5068135;28;20901;-81
2023/08/27 03:22:23;;;;;;;16.92;15.43;;;;;;;20.24;84.65;92724.66;5068277;28;20192;-82
2023/08/27 03:24:48;;;;;;;16.60;14.90;;;;;;;20.30;84.46;92720.66;5065693;28;20196;-72
2023/08/27 03:27:13;;;;;;;17.92;14.70;;;;;;;20.20;84.94;92713.94;5066142;28;20184;-82
2023/08/27 03:29:39;;;;;;;16.08;14.68;;;;;;;20.20;85.46;92724.56;5069073;28;20667;-83
2023/08/27 03:32:05;;;;;;;16.63;15.13;;;;;;;20.31;84.70;92732.84;5069249;28;20227;-82
2023/08/27 03:34:31;;;;;;;16.15;14.65;;;;;;;20.17;84.79;92721.81;5068609;28;20184;-82
2023/08/27 03:36:57;;;;;;;15.18;13.77;;;;;;;20.12;84.95;92733.41;5067705;28;20262;-82
2023/08/27 03:39:22;;;;;;;14.45;13.10;;;;;;;20.12;85.17;92733.41;5069279;28;20257;-82
2023/08/27 03:41:48;;;;;;;16.42;14.70;;;;;;;20.07;85.57;92733.63;5067357;28;20220;-82
2023/08/27 03:44:13;;;;;;;35.10;18.27;;;;;;;20.17;86.57;92727.88;5075529;28;20195;-82
2023/08/27 03:46:41;;;;;;;17.98;15.25;;;;;;;20.13;86.14;92736.78;5074508;28;20227;-82
2023/08/27 03:49:07;;;;;;;20.98;14.93;;;;;;;19.96;85.61;92729.88;5067364;28;20212;-83
2023/08/27 03:51:33;;;;;;;20.07;14.77;;;;;;;19.85;87.98;92722.69;5078770;28;20311;-79
2023/08/27 03:53:59;;;;;;;16.48;14.88;;;;;;;19.94;87.57;92731.28;5065380;28;20174;-81
2023/08/27 03:56:24;;;;;;;15.85;14.55;;;;;;;19.78;88.33;92723.22;5063160;28;20221;-82
2023/08/27 03:58:50;;;;;;;16.02;14.63;;;;;;;19.97;86.79;92735.94;5068347;28;20247;-78
2023/08/27 04:01:16;;;;;;;16.33;14.43;;;;;;;20.09;84.78;92736.72;5055944;28;20240;-84
2023/08/27 04:03:42;;;;;;;17.92;15.00;;;;;;;20.18;85.32;92736.59;5069348;28;20187;-82
2023/08/27 04:06:08;;;;;;;16.67;14.90;;;;;;;20.25;84.69;92737.59;5068788;28;20247;-82
2023/08/27 04:08:33;;;;;;;16.35;14.85;;;;;;;20.15;86.32;92738.06;5074963;28;20199;-82
2023/08/27 04:11:01;;;;;;;16.42;14.95;;;;;;;20.11;85.04;92737.13;5074158;28;20230;-82
2023/08/27 04:13:27;;;;;;;16.23;14.65;;;;;;;20.30;84.00;92750.63;5069627;28;20199;-82
2023/08/27 04:16:05;;;;;;;15.05;13.85;;;;;;;20.29;84.15;92749.09;5079269;28;20228;-83
2023/08/27 04:18:30;;;;;;;15.95;14.43;;;;;;;20.39;84.95;92755.78;5060883;28;20211;-81
2023/08/27 04:20:56;;;;;;;16.27;14.63;;;;;;;20.45;84.12;92755.22;5068915;28;20222;-82
2023/08/27 04:23:22;;;;;;;16.48;14.75;;;;;;;20.63;83.86;92764.47;5067983;28;20173;-82
2023/08/27 04:25:47;;;;;;;16.02;14.38;;;;;;;20.46;84.59;92745.41;5068385;28;20233;-79
2023/08/27 04:28:13;;;;;;;17.77;16.15;;;;;;;20.58;85.22;92755.97;5067713;28;20204;-82
2023/08/27 04:30:39;;;;;;;16.73;15.07;;;;;;;20.64;85.70;92760.72;5058608;28;20233;-78
2023/08/27 04:33:05;;;;;;;15.95;14.60;;;;;;;20.60;85.99;92751.88;5069272;28;20215;-82
2023/08/27 04:35:31;;;;;;;17.48;15.68;;;;;;;20.67;84.60;92736.16;5079539;28;20230;-82
2023/08/27 04:37:56;;;;;;;15.65;14.25;;;;;;;20.81;84.94;92745.63;5069416;28;20186;-79
2023/08/27 04:40:22;;;;;;;17.25;15.52;;;;;;;20.84;84.90;92747.59;5064661;28;20242;-82
2023/08/27 04:42:47;;;;;;;15.75;14.23;;;;;;;21.03;83.70;92750.44;5069313;28;20212;-82
2023/08/27 04:45:12;;;;;;;15.55;14.15;;;;;;;21.11;83.31;92746.84;5064491;28;20220;-82
2023/08/27 04:47:38;;;;;;;16.75;15.27;;;;;;;21.27;82.96;92755.63;5059689;28;20213;-81
2023/08/27 04:50:05;;;;;;;15.70;14.30;;;;;;;21.24;83.26;92757.09;5075884;28;20248;-82
2023/08/27 04:52:30;;;;;;;15.52;14.13;;;;;;;21.55;80.13;92751.03;5066799;28;20192;-81
2023/08/27 04:54:56;;;;;;;16.45;14.82;;;;;;;21.66;79.15;92758.16;5063959;28;20191;-81
2023/08/27 04:57:21;;;;;;;16.45;14.85;;;;;;;21.61;79.35;92754.97;5068437;28;20177;-81
2023/08/27 04:59:46;;;;;;;17.67;15.70;;;;;;;21.74;78.92;92769.72;5068878;28;20189;-82
2023/08/27 05:02:12;;;;;;;16.92;15.18;;;;;;;21.77;79.42;92763.75;5069255;28;20210;-81
2023/08/27 05:04:37;;;;;;;17.98;16.25;;;;;;;21.88;78.33;92762.13;5071126;28;20187;-82
2023/08/27 05:07:03;;;;;;;18.02;16.25;;;;;;;21.83;78.77;92762.38;5058012;28;20207;-82
2023/08/27 05:09:28;;;;;;;18.63;16.48;;;;;;;21.96;78.54;92772.56;5070010;28;20210;-81
2023/08/27 05:11:53;;;;;;;17.98;15.93;;;;;;;22.10;78.31;92767.59;5065226;28;20315;-82
2023/08/27 05:14:19;;;;;;;18.17;16.17;;;;;;;22.14;77.88;92773.00;5076062;28;20927;-82
2023/08/27 05:16:44;;;;;;;16.75;15.10;;;;;;;22.18;77.47;92771.19;5071007;28;20236;-79
2023/08/27 05:19:09;;;;;;;17.95;16.23;;;;;;;22.20;77.55;92771.63;5070187;28;20194;-82
2023/08/27 05:21:36;;;;;;;18.17;16.30;;;;;;;22.20;78.30;92779.59;5069448;28;20285;-82
2023/08/27 05:24:01;;;;;;;18.63;16.35;;;;;;;22.20;77.74;92776.94;5082357;28;20190;-82
2023/08/27 05:26:26;;;;;;;18.20;16.30;;;;;;;22.38;77.13;92778.13;5071047;28;20233;-81
2023/08/27 05:28:52;;;;;;;18.70;16.73;;;;;;;22.36;77.32;92775.03;5072154;28;20210;-82
2023/08/27 05:31:17;;;;;;;17.52;15.77;;;;;;;22.34;77.36;92771.94;5069697;28;20231;-77
2023/08/27 05:33:43;;;;;;;19.65;15.02;;;;;;;22.23;76.84;92785.00;5071032;28;20187;-79
2023/08/27 05:36:09;;;;;;;18.98;16.98;;;;;;;22.33;77.17;92780.25;5062535;28;20441;-80
2023/08/27 05:38:34;;;;;;;20.80;17.83;;;;;;;22.84;74.94;92787.88;5064453;28;20743;-77
2023/08/27 05:41:00;;;;;;;18.17;16.55;;;;;;;22.45;76.39;92786.25;5069849;28;20228;-79
2023/08/27 05:43:26;;;;;;;18.05;16.42;;;;;;;22.60;76.59;92788.13;5070917;28;20189;-79
2023/08/27 05:45:51;;;;;;;16.85;15.25;;;;;;;22.85;74.88;92794.75;5070783;28;20515;-80
2023/08/27 05:48:17;;;;;;;18.48;16.63;;;;;;;22.88;74.15;92785.31;5068103;28;20245;-82
2023/08/27 05:50:44;;;;;;;17.00;15.35;;;;;;;23.38;71.89;92783.28;5060620;28;20223;-75
2023/08/27 05:53:11;;;;;;;18.08;16.23;;;;;;;23.63;70.93;92789.03;5060318;28;20214;-78
2023/08/27 05:55:36;;;;;;;16.73;15.05;;;;;;;23.63;70.90;92778.38;5067656;28;20216;-77
2023/08/27 05:58:03;;;;;;;19.83;15.90;;;;;;;25.89;63.08;92796.41;5065546;28;20203;-77
2023/08/27 06:00:29;;;;;;;16.95;14.20;;;;;;;29.19;51.91;92800.31;5065748;28;20223;-75
2023/08/27 06:02:54;;;;;;;14.82;13.52;;;;;;;31.70;43.60;92804.22;5059727;28;20193;-74
2023/08/27 06:05:19;;;;;;;14.70;13.50;;;;;;;31.03;43.56;92779.91;5068985;28;20234;-74
2023/08/27 06:07:45;;;;;;;15.23;13.82;;;;;;;30.72;44.35;92781.72;5059479;28;20225;-73
2023/08/27 06:10:10;;;;;;;16.92;14.23;;;;;;;28.85;49.79;92791.16;5059711;28;20237;-74
2023/08/27 06:12:35;;;;;;;17.60;13.93;;;;;;;26.73;56.62;92787.19;5061768;28;20196;-73
2023/08/27 06:15:01;;;;;;;15.98;14.43;;;;;;;24.71;64.05;92778.63;5053709;28;20205;-74
2023/08/27 06:17:26;;;;;;;16.65;15.10;;;;;;;24.85;64.74;92779.56;5058211;28;20186;-74
2023/08/27 06:19:52;;;;;;;18.00;16.40;;;;;;;24.45;66.70;92765.25;5056088;28;20186;-73
2023/08/27 06:22:17;;;;;;;17.92;16.27;;;;;;;24.64;66.00;92768.56;5051559;28;20200;-73
2023/08/27 06:24:43;;;;;;;18.33;16.45;;;;;;;24.99;64.34;92762.94;5058279;28;20187;-73
2023/08/27 06:27:09;;;;;;;17.33;15.68;;;;;;;24.76;65.40;92772.97;5055341;28;20224;-74
2023/08/27 06:29:34;;;;;;;16.33;14.82;;;;;;;24.35;66.65;92761.31;5055422;28;20195;-73
2023/08/27 06:31:59;;;;;;;16.75;15.07;;;;;;;23.89;67.41;92727.78;5059504;28;20217;-74
2023/08/27 06:34:25;;;;;;;16.33;14.73;;;;;;;24.88;64.41;92762.03;5068870;28;20245;-74
2023/08/27 06:36:50;;;;;;;16.92;14.88;;;;;;;25.06;63.92;92765.69;5064412;28;20320;-75
2023/08/27 06:39:16;;;;;;;16.15;14.57;;;;;;;24.64;66.15;92763.22;5070576;28;20198;-73
2023/08/27 06:41:41;;;;;;;16.27;14.82;;;;;;;24.59;65.14;92765.47;5062394;28;20220;-73
2023/08/27 06:44:06;;;;;;;16.38;14.73;;;;;;;24.63;65.20;92771.59;5063598;28;20192;-73
2023/08/27 06:46:32;;;;;;;18.67;14.77;;;;;;;24.63;64.01;92768.94;5065838;28;20290;-75
2023/08/27 06:48:58;;;;;;;16.60;15.10;;;;;;;24.74;64.48;92761.88;5074016;28;20212;-79
2023/08/27 06:51:24;;;;;;;17.25;15.65;;;;;;;24.62;64.29;92765.47;5066865;28;20254;-77
2023/08/27 06:53:49;;;;;;;16.60;15.00;;;;;;;24.58;65.60;92761.22;5066213;28;20192;-77
2023/08/27 06:56:14;;;;;;;18.02;16.23;;;;;;;25.25;62.92;92762.88;5066285;28;20228;-75
2023/08/27 06:58:40;;;;;;;16.33;14.48;;;;;;;25.28;62.81;92765.59;5064816;28;20283;-75
2023/08/27 07:01:05;;;;;;;16.52;14.93;;;;;;;25.29;63.34;92767.13;5062418;28;20233;-75
2023/08/27 07:03:31;;;;;;;16.67;15.18;;;;;;;25.69;61.47;92762.97;5056038;28;20256;-75
2023/08/27 07:05:57;;;;;;;18.42;16.60;;;;;;;25.92;60.35;92771.59;5065224;28;20225;-74
2023/08/27 07:08:23;;;;;;;17.77;16.02;;;;;;;26.01;60.07;92778.22;5059796;28;21031;-78
2023/08/27 07:10:48;;;;;;;17.33;15.65;;;;;;;25.88;60.24;92771.59;5072408;28;20236;-75
2023/08/27 07:13:14;;;;;;;21.95;15.93;;;;;;;25.40;62.54;92777.19;5072037;28;20193;-81
2023/08/27 07:15:40;;;;;;;19.98;15.90;;;;;;;25.90;60.00;92777.31;5055598;28;22583;-78
2023/08/27 07:18:06;;;;;;;16.67;15.07;;;;;;;26.20;59.19;92788.69;5068731;28;20227;-80
2023/08/27 07:20:33;;;;;;;17.05;15.48;;;;;;;25.95;59.81;92776.19;5054586;28;20917;-83
2023/08/27 07:22:59;;;;;;;17.38;15.52;;;;;;;25.71;61.14;92780.22;5059437;28;20192;-85
2023/08/27 07:25:24;;;;;;;16.40;14.80;;;;;;;25.81;60.71;92781.44;5050785;28;20244;-85
2023/08/27 07:27:50;;;;;;;15.65;14.00;;;;;;;26.26;59.77;92784.53;5066845;28;20224;-86
2023/08/27 07:30:15;;;;;;;16.58;14.98;;;;;;;26.44;58.11;92784.69;5065970;28;20235;-81
2023/08/27 07:32:41;;;;;;;17.08;14.75;;;;;;;25.78;60.10;92785.63;5069048;28;20188;-86
2023/08/27 07:35:06;;;;;;;17.33;15.70;;;;;;;25.82;59.81;92786.41;5059450;28;20217;-84
2023/08/27 07:37:32;;;;;;;15.60;14.23;;;;;;;26.67;58.21;92796.72;5068642;28;20259;-85
2023/08/27 07:39:58;;;;;;;16.13;14.65;;;;;;;26.21;59.30;92778.78;5069118;28;20875;-86
2023/08/27 07:42:23;;;;;;;16.45;14.95;;;;;;;26.37;58.56;92798.00;5054063;28;20190;-85
2023/08/27 07:44:48;;;;;;;16.85;14.65;;;;;;;26.60;57.50;92791.28;5061325;28;20186;-75
2023/08/27 07:47:14;;;;;;;15.68;14.18;;;;;;;26.62;57.02;92783.66;5064810;28;20217;-83
2023/08/27 07:49:40;;;;;;;16.00;14.10;;;;;;;26.04;59.05;92780.16;5069984;28;20190;-87
2023/08/27 07:52:05;;;;;;;15.77;14.48;;;;;;;25.92;59.20;92777.72;5065461;28;20221;-84
2023/08/27 07:54:30;;;;;;;16.88;13.95;;;;;;;26.36;57.98;92785.75;5059589;28;20231;-87
2023/08/27 07:56:56;;;;;;;16.98;14.18;;;;;;;26.83;56.64;92787.63;5060209;28;20221;-85
2023/08/27 07:59:21;;;;;;;14.73;13.32;;;;;;;26.85;56.07;92780.00;5060440;28;20189;-79
2023/08/27 08:01:47;;;;;;;15.30;13.80;;;;;;;26.67;56.99;92786.00;5061293;28;20216;-82
2023/08/27 08:04:12;;;;;;;16.60;14.10;;;;;;;26.49;57.06;92760.22;5059265;28;20257;-84
2023/08/27 08:06:38;;;;;;;16.05;13.88;;;;;;;26.66;56.79;92784.47;5062593;28;20218;-83
2023/08/27 08:09:03;;;;;;;15.45;13.85;;;;;;;26.62;56.33;92783.66;5049488;28;20209;-84
2023/08/27 08:11:28;;;;;;;18.15;14.18;;;;;;;26.77;56.07;92773.81;5051844;28;20212;-80
2023/08/27 08:13:54;;;;;;;15.65;13.57;;;;;;;26.52;55.72;92740.75;5068253;28;20226;-80
2023/08/27 08:16:20;;;;;;;15.77;14.10;;;;;;;26.85;55.95;92769.28;5063595;28;20210;-79
2023/08/27 08:18:46;;;;;;;14.85;13.00;;;;;;;26.80;55.96;92762.34;5058355;28;20248;-83
2023/08/27 08:21:11;;;;;;;14.95;13.45;;;;;;;27.57;54.11;92770.72;5061771;28;20214;-81
2023/08/27 08:23:37;;;;;;;14.65;13.25;;;;;;;27.85;52.47;92767.31;5066261;28;20185;-83
2023/08/27 08:26:03;;;;;;;15.82;13.20;;;;;;;27.96;52.01;92757.41;5067999;28;20244;-80
2023/08/27 08:28:28;;;;;;;19.00;13.32;;;;;;;27.99;51.70;92757.41;5073793;28;20741;-79
2023/08/27 08:30:54;;;;;;;14.98;13.38;;;;;;;27.98;51.81;92758.56;5058971;28;20225;-77
2023/08/27 08:33:19;;;;;;;17.95;13.27;;;;;;;27.83;51.79;92743.56;5066677;28;20196;-79
2023/08/27 08:35:45;;;;;;;14.27;12.93;;;;;;;27.97;50.96;92759.69;5070173;28;20233;-77
2023/08/27 08:38:11;;;;;;;13.73;12.38;;;;;;;28.07;50.32;92752.81;5078656;28;20197;-82
2023/08/27 08:40:44;;;;;;;13.57;12.45;;;;;;;27.95;51.27;92745.13;5069059;28;20228;-82
2023/08/27 08:43:22;;;;;;;12.80;11.70;;;;;;;28.04;49.52;92756.25;5056413;28;20190;-76
2023/08/27 08:46:04;;;;;;;13.35;12.07;;;;;;;28.29;49.10;92743.59;5068231;28;20222;-79
2023/08/27 08:48:38;;;;;;;13.45;12.13;;;;;;;28.18;48.84;92742.84;5069220;28;20220;-81
2023/08/27 08:51:09;;;;;;;15.93;12.15;;;;;;;28.42;48.13;92755.50;5071879;28;20213;-80
2023/08/27 08:53:41;;;;;;;16.05;14.55;;;;;;;28.56;48.49;92746.69;5061022;28;20241;-84
2023/08/27 08:56:13;;;;;;;14.40;13.15;;;;;;;28.62;46.83;92743.22;5071350;28;20230;-76
2023/08/27 08:58:43;;;;;;;14.25;12.75;;;;;;;28.85;46.31;92738.16;5068829;28;20188;-87
2023/08/27 09:01:09;;;;;;;14.48;13.18;;;;;;;28.80;46.21;92730.50;5064063;28;20251;-92
2023/08/27 09:03:36;;;;;;;14.77;13.30;;;;;;;29.13;46.18;92748.09;5072091;28;20200;-94
2023/08/27 09:06:03;;;;;;;14.18;12.93;;;;;;;29.22;45.95;92733.06;5070575;28;20221;-90
2023/08/27 09:08:30;;;;;;;12.50;11.52;;;;;;;29.27;45.12;92735.34;5084105;28;20209;-93
2023/08/27 09:10:56;;;;;;;13.93;12.60;;;;;;;28.79;45.85;92728.97;5071159;28;20213;-91
2023/08/27 09:13:22;;;;;;;12.50;11.50;;;;;;;29.33;44.60;92738.38;5071697;28;20214;-93
2023/08/27 09:15:48;;;;;;;14.18;12.80;;;;;;;29.07;44.58;92728.91;5069157;28;20225;-92
2023/08/27 09:18:15;;;;;;;14.15;12.15;;;;;;;29.24;43.60;92735.38;5070934;28;20177;-93
2023/08/27 09:20:41;;;;;;;12.13;10.98;;;;;;;29.41;42.51;92727.22;5070193;28;20282;-92
2023/08/27 09:23:09;;;;;;;12.38;11.20;;;;;;;29.56;41.90;92725.97;5051611;28;20248;-92
2023/08/27 09:25:36;;;;;;;12.25;11.15;;;;;;;29.64;40.61;92730.19;5063459;28;20217;-93
2023/08/27 09:28:01;;;;;;;12.15;10.88;;;;;;;29.14;41.80;92728.88;5076659;28;20222;-84
2023/08/27 09:30:27;;;;;;;15.07;11.00;;;;;;;29.12;41.89;92719.66;5075799;28;20259;-88
2023/08/27 09:32:54;;;;;;;10.80;9.80;;;;;;;29.76;40.84;92714.75;5070507;28;20184;-91
2023/08/27 09:35:19;;;;;;;10.00;9.10;;;;;;;30.04;38.54;92728.75;5082662;28;20235;-92
2023/08/27 09:37:45;;;;;;;10.50;9.30;;;;;;;30.10;38.31;92718.34;5072558;28;20223;-92
2023/08/27 09:40:14;;;;;;;10.50;9.52;;;;;;;30.23;38.10;92724.81;5071408;28;20223;-93
2023/08/27 09:42:40;;;;;;;11.40;10.30;;;;;;;30.27;38.87;92717.44;5071273;28;20213;-91
2023/08/27 09:45:06;;;;;;;11.85;10.70;;;;;;;30.20;38.34;92712.88;5070804;28;20216;-93
2023/08/27 09:47:37;;;;;;;10.40;9.60;;;;;;;30.21;38.59;92717.09;5068250;28;20199;-89
2023/08/27 09:50:16;;;;;;;11.00;10.00;;;;;;;29.91;40.36;92711.56;5071589;28;20218;-92
2023/08/27 09:52:42;;;;;;;11.60;10.52;;;;;;;29.76;40.50;92698.59;5072404;28;20194;-87
2023/08/27 09:55:14;;;;;;;11.63;10.38;;;;;;;29.84;40.43;92705.47;5067978;28;20193;-92
2023/08/27 09:57:48;;;;;;;10.15;9.20;;;;;;;30.13;40.70;92698.69;5064267;28;20189;-92
2023/08/27 10:00:15;;;;;;;11.55;10.65;;;;;;;30.41;39.95;92703.84;5069487;28;20259;-93
2023/08/27 10:02:43;;;;;;;11.43;10.23;;;;;;;30.60;39.50;92714.06;5070396;28;20184;-93
2023/08/27 10:05:09;;;;;;;10.73;9.82;;;;;;;30.53;39.47;92709.50;5071264;28;21310;-90
2023/08/27 10:07:34;;;;;;;11.10;10.02;;;;;;;30.53;39.45;92714.13;5072077;28;20181;-93
2023/08/27 10:10:03;;;;;;;11.85;10.43;;;;;;;29.98;39.44;92706.09;5062356;28;20189;-91
2023/08/27 10:12:29;;;;;;;11.38;10.38;;;;;;;29.57;40.56;92703.28;5071721;28;20182;-87
2023/08/27 10:14:55;;;;;;;11.43;10.25;;;;;;;29.64;40.27;92692.50;5065760;28;20185;-92
2023/08/27 10:17:23;;;;;;;10.98;9.98;;;;;;;30.01;40.29;92701.88;5064489;28;20182;-93
2023/08/27 10:19:48;;;;;;;11.73;10.60;;;;;;;30.09;39.94;92687.19;5069081;28;20193;-92
2023/08/27 10:22:15;;;;;;;11.27;10.38;;;;;;;30.39;39.49;92698.09;5073614;28;20228;-91
2023/08/27 10:24:41;;;;;;;10.13;9.23;;;;;;;30.73;39.17;92698.91;5078529;28;20177;-93
2023/08/27 10:27:07;;;;;;;10.80;9.95;;;;;;;30.53;38.68;92687.16;5071228;28;20236;-91
2023/08/27 10:29:33;;;;;;;10.82;9.82;;;;;;;30.55;39.57;92690.25;5082271;28;20212;-92
2023/08/27 10:31:59;;;;;;;10.48;9.48;;;;;;;30.73;36.95;92686.19;5071241;28;20231;-93
2023/08/27 10:34:27;;;;;;;11.98;10.48;;;;;;;30.19;38.52;92675.53;5067739;28;20200;-84
2023/08/27 10:36:53;;;;;;;12.02;10.18;;;;;;;30.37;39.94;92678.88;5069615;28;20233;-93
2023/08/27 10:39:26;;;;;;;10.52;9.60;;;;;;;30.63;37.05;92683.63;5077589;28;20196;-93
2023/08/27 10:41:51;;;;;;;10.20;9.25;;;;;;;30.45;38.04;92673.00;5079294;28;20224;-90
2023/08/27 10:44:20;;;;;;;10.50;9.13;;;;;;;30.46;38.67;92671.09;5068859;28;20247;-88
2023/08/27 10:47:13;;;;;;;11.07;10.07;;;;;;;30.36;37.90;92661.16;5070766;28;20219;-90
2023/08/27 10:49:40;;;;;;;10.73;9.63;;;;;;;30.27;39.02;92656.25;5071138;28;20220;-88
2023/08/27 10:52:19;;;;;;;11.25;10.15;;;;;;;30.36;39.07;92659.25;5070201;28;20221;-86
2023/08/27 10:54:46;;;;;;;11.77;10.32;;;;;;;30.84;38.60;92667.22;5071323;28;20193;-92
2023/08/27 10:57:20;;;;;;;10.48;9.48;;;;;;;30.60;35.54;92633.19;5083599;28;20225;-91
2023/08/27 10:59:46;;;;;;;10.50;9.43;;;;;;;30.66;36.19;92664.69;5069940;28;20188;-89
2023/08/27 11:02:11;;;;;;;11.57;10.52;;;;;;;30.76;37.64;92652.28;5070485;28;20225;-92
2023/08/27 11:04:39;;;;;;;12.82;9.75;;;;;;;30.95;36.77;92654.38;5070407;28;20182;-89
2023/08/27 11:07:15;;;;;;;10.77;9.73;;;;;;;30.92;36.58;92655.97;5076403;28;20219;-92
2023/08/27 11:09:57;;;;;;;10.50;9.60;;;;;;;30.81;36.03;92651.84;5066610;28;20212;-90
2023/08/27 11:12:26;;;;;;;13.15;9.57;;;;;;;30.78;36.64;92649.97;5070109;28;20213;-91
2023/08/27 11:14:54;;;;;;;9.77;9.07;;;;;;;30.90;35.86;92649.41;5062512;28;20189;-91